SHT21B EGJB-EGLL
Flight info
| Callsign | SHT21B |
|---|---|
| Flight time | 0h 37m |
| Altitude | 19000 |
| Route | ORIST1F ORIST L982 ROXOG ROXOG1H |
| Aircraft | A319/M-SDE3FGIJ1KRWXY/LB1 |
Departure
| Time | 2026-04-23 13:55 |
|---|---|
| Airport | Guernsey Airport (EGJB) |
Arrival
| Time | 2026-04-23 14:32 |
|---|---|
| Airport | London Heathrow Airport (EGLL) |
| Time | Latitude | Longitude | Altitude | Speed | Heading |
|---|---|---|---|---|---|
| 2026-04-23 13:43 | 49.43260 | -2.59682 | 340 ft | 0 kts | 177° |
| 2026-04-23 13:48 | 49.43269 | -2.59683 | 336 ft | 4 kts | 178° |
| 2026-04-23 13:49 | 49.43296 | -2.59684 | 340 ft | 4 kts | 180° |
| 2026-04-23 13:49 | 49.43323 | -2.59683 | 340 ft | 4 kts | 185° |
| 2026-04-23 13:49 | 49.43349 | -2.59675 | 334 ft | 4 kts | 211° |
| 2026-04-23 13:49 | 49.43360 | -2.59658 | 334 ft | 0 kts | 271° |
| 2026-04-23 13:51 | 49.43360 | -2.59664 | 334 ft | 3 kts | 271° |
| 2026-04-23 13:52 | 49.43354 | -2.59738 | 340 ft | 10 kts | 253° |
| 2026-04-23 13:52 | 49.43344 | -2.59869 | 340 ft | 14 kts | 269° |
| 2026-04-23 13:52 | 49.43339 | -2.60042 | 335 ft | 17 kts | 267° |
| 2026-04-23 13:52 | 49.43334 | -2.60216 | 340 ft | 17 kts | 268° |
| 2026-04-23 13:53 | 49.43330 | -2.60398 | 340 ft | 16 kts | 268° |
| 2026-04-23 13:53 | 49.43325 | -2.60574 | 338 ft | 17 kts | 270° |
| 2026-04-23 13:53 | 49.43346 | -2.60765 | 340 ft | 19 kts | 280° |
| 2026-04-23 13:53 | 49.43365 | -2.60973 | 336 ft | 20 kts | 270° |
| 2026-04-23 13:54 | 49.43359 | -2.61171 | 340 ft | 22 kts | 267° |
| 2026-04-23 13:54 | 49.43423 | -2.61354 | 346 ft | 14 kts | 336° |
| 2026-04-23 13:54 | 49.43468 | -2.61334 | 355 ft | 3 kts | 83° |
| 2026-04-23 13:54 | 49.43468 | -2.61328 | 355 ft | 0 kts | 88° |
| 2026-04-23 13:55 | 49.43475 | -2.61019 | 348 ft | 68 kts | 88° |
| 2026-04-23 13:55 | 49.43506 | -2.59905 | 388 ft | 134 kts | 86° |
| 2026-04-23 13:55 | 49.43553 | -2.58369 | 938 ft | 155 kts | 86° |
| 2026-04-23 13:55 | 49.43605 | -2.56628 | 1612 ft | 171 kts | 89° |
| 2026-04-23 13:56 | 49.43652 | -2.54721 | 2232 ft | 184 kts | 92° |
| 2026-04-23 13:56 | 49.43702 | -2.52721 | 3158 ft | 190 kts | 93° |
| 2026-04-23 13:56 | 49.43861 | -2.50659 | 4073 ft | 203 kts | 76° |
| 2026-04-23 13:56 | 49.44751 | -2.48888 | 5002 ft | 223 kts | 39° |
| 2026-04-23 13:57 | 49.46251 | -2.48057 | 5998 ft | 233 kts | 19° |
| 2026-04-23 13:57 | 49.47832 | -2.47470 | 7022 ft | 235 kts | 19° |
| 2026-04-23 13:57 | 49.49490 | -2.46858 | 7672 ft | 257 kts | 19° |
| 2026-04-23 13:57 | 49.51330 | -2.46168 | 8324 ft | 277 kts | 18° |
| 2026-04-23 13:58 | 49.53233 | -2.45456 | 9263 ft | 284 kts | 18° |
| 2026-04-23 13:58 | 49.55160 | -2.44733 | 10296 ft | 287 kts | 18° |
| 2026-04-23 13:58 | 49.57104 | -2.44001 | 11245 ft | 289 kts | 18° |
| 2026-04-23 13:58 | 49.59072 | -2.43254 | 12231 ft | 292 kts | 18° |
| 2026-04-23 13:59 | 49.61053 | -2.42499 | 13163 ft | 295 kts | 18° |
| 2026-04-23 13:59 | 49.63055 | -2.41730 | 14118 ft | 298 kts | 18° |
| 2026-04-23 13:59 | 49.65078 | -2.40952 | 14939 ft | 301 kts | 18° |
| 2026-04-23 13:59 | 49.67117 | -2.40166 | 15769 ft | 304 kts | 18° |
| 2026-04-23 14:00 | 49.68465 | -2.39564 | 16313 ft | 304 kts | 24° |
| 2026-04-23 14:00 | 49.70922 | -2.37431 | 17238 ft | 310 kts | 40° |
| 2026-04-23 14:00 | 49.72488 | -2.35001 | 17508 ft | 328 kts | 51° |
| 2026-04-23 14:00 | 49.73973 | -2.32259 | 18107 ft | 336 kts | 51° |
| 2026-04-23 14:01 | 49.75490 | -2.29469 | 18820 ft | 340 kts | 50° |
| 2026-04-23 14:01 | 49.77025 | -2.26659 | 19197 ft | 343 kts | 50° |
| 2026-04-23 14:01 | 49.78069 | -2.24753 | 19283 ft | 344 kts | 49° |
| 2026-04-23 14:01 | 49.79580 | -2.21998 | 19319 ft | 327 kts | 49° |
| 2026-04-23 14:02 | 49.81034 | -2.19351 | 19329 ft | 320 kts | 49° |
| 2026-04-23 14:02 | 49.82468 | -2.16739 | 19328 ft | 318 kts | 49° |
| 2026-04-23 14:02 | 49.83896 | -2.14128 | 19329 ft | 317 kts | 49° |
| 2026-04-23 14:02 | 49.85322 | -2.11518 | 19331 ft | 317 kts | 49° |
| 2026-04-23 14:03 | 49.86749 | -2.08910 | 19330 ft | 317 kts | 49° |
| 2026-04-23 14:03 | 49.88171 | -2.06297 | 19332 ft | 317 kts | 50° |
| 2026-04-23 14:03 | 49.89589 | -2.03691 | 19334 ft | 316 kts | 50° |
| 2026-04-23 14:03 | 49.91010 | -2.01085 | 19337 ft | 316 kts | 49° |
| 2026-04-23 14:04 | 49.92429 | -1.98481 | 19338 ft | 316 kts | 49° |
| 2026-04-23 14:04 | 49.93844 | -1.95876 | 19342 ft | 316 kts | 50° |
| 2026-04-23 14:04 | 49.95261 | -1.93255 | 19342 ft | 316 kts | 50° |
| 2026-04-23 14:04 | 49.96674 | -1.90647 | 19348 ft | 316 kts | 50° |
| 2026-04-23 14:05 | 49.98093 | -1.88033 | 19351 ft | 316 kts | 50° |
| 2026-04-23 14:05 | 49.99569 | -1.85497 | 19353 ft | 316 kts | 43° |
| 2026-04-23 14:05 | 50.01338 | -1.83467 | 19354 ft | 318 kts | 31° |
| 2026-04-23 14:05 | 50.03302 | -1.81895 | 19360 ft | 318 kts | 28° |
| 2026-04-23 14:06 | 50.05303 | -1.80319 | 19358 ft | 318 kts | 28° |
| 2026-04-23 14:06 | 50.07276 | -1.78761 | 19362 ft | 318 kts | 28° |
| 2026-04-23 14:06 | 50.09248 | -1.77203 | 19364 ft | 318 kts | 28° |
| 2026-04-23 14:06 | 50.11218 | -1.75642 | 19364 ft | 318 kts | 28° |
| 2026-04-23 14:07 | 50.13081 | -1.73812 | 19363 ft | 316 kts | 39° |
| 2026-04-23 14:07 | 50.16462 | -1.69422 | 19368 ft | 316 kts | 40° |
| 2026-04-23 14:07 | 50.18151 | -1.67232 | 19367 ft | 316 kts | 40° |
| 2026-04-23 14:08 | 50.19841 | -1.65044 | 19369 ft | 316 kts | 40° |
| 2026-04-23 14:08 | 50.21532 | -1.62852 | 19367 ft | 316 kts | 40° |
| 2026-04-23 14:08 | 50.23224 | -1.60652 | 19373 ft | 316 kts | 40° |
| 2026-04-23 14:08 | 50.24915 | -1.58453 | 19375 ft | 316 kts | 40° |
| 2026-04-23 14:09 | 50.26713 | -1.56489 | 19373 ft | 317 kts | 30° |
| 2026-04-23 14:09 | 50.28758 | -1.55178 | 19375 ft | 319 kts | 19° |
| 2026-04-23 14:09 | 50.30882 | -1.54158 | 19373 ft | 319 kts | 19° |
| 2026-04-23 14:09 | 50.33002 | -1.53128 | 19378 ft | 319 kts | 19° |
| 2026-04-23 14:10 | 50.35121 | -1.52090 | 19381 ft | 319 kts | 20° |
| 2026-04-23 14:10 | 50.37240 | -1.51048 | 19378 ft | 319 kts | 20° |
| 2026-04-23 14:10 | 50.39316 | -1.49861 | 19377 ft | 317 kts | 30° |
| 2026-04-23 14:10 | 50.41140 | -1.47945 | 19380 ft | 316 kts | 37° |
| 2026-04-23 14:11 | 50.42929 | -1.45927 | 19376 ft | 316 kts | 37° |
| 2026-04-23 14:11 | 50.44711 | -1.43908 | 19376 ft | 316 kts | 37° |
| 2026-04-23 14:11 | 50.46495 | -1.41885 | 19377 ft | 316 kts | 37° |
| 2026-04-23 14:11 | 50.48305 | -1.39836 | 19379 ft | 317 kts | 37° |
| 2026-04-23 14:12 | 50.50091 | -1.37813 | 19380 ft | 317 kts | 37° |
| 2026-04-23 14:12 | 50.51876 | -1.35791 | 19379 ft | 317 kts | 37° |
| 2026-04-23 14:12 | 50.53667 | -1.33763 | 19380 ft | 317 kts | 37° |
| 2026-04-23 14:12 | 50.55438 | -1.31759 | 19383 ft | 317 kts | 37° |
| 2026-04-23 14:13 | 50.57230 | -1.29727 | 19379 ft | 317 kts | 37° |
| 2026-04-23 14:13 | 50.59018 | -1.27695 | 19377 ft | 318 kts | 37° |
| 2026-04-23 14:13 | 50.60810 | -1.25657 | 19373 ft | 318 kts | 37° |
| 2026-04-23 14:13 | 50.62600 | -1.23613 | 19371 ft | 318 kts | 37° |
| 2026-04-23 14:14 | 50.64385 | -1.21569 | 19373 ft | 318 kts | 37° |
| 2026-04-23 14:14 | 50.66176 | -1.19521 | 19370 ft | 318 kts | 37° |
| 2026-04-23 14:14 | 50.67969 | -1.17476 | 19370 ft | 318 kts | 37° |
| 2026-04-23 14:14 | 50.69766 | -1.15424 | 19375 ft | 318 kts | 37° |
| 2026-04-23 14:15 | 50.71559 | -1.13375 | 19371 ft | 319 kts | 37° |
| 2026-04-23 14:15 | 50.73378 | -1.11293 | 19377 ft | 319 kts | 37° |
| 2026-04-23 14:15 | 50.75231 | -1.09162 | 19389 ft | 338 kts | 37° |
| 2026-04-23 14:15 | 50.77124 | -1.06983 | 19368 ft | 332 kts | 37° |
| 2026-04-23 14:16 | 50.78956 | -1.04877 | 19240 ft | 320 kts | 38° |
| 2026-04-23 14:16 | 50.80734 | -1.02834 | 18994 ft | 313 kts | 38° |
| 2026-04-23 14:16 | 50.82483 | -1.00821 | 18626 ft | 310 kts | 38° |
| 2026-04-23 14:16 | 50.84219 | -0.98817 | 18186 ft | 308 kts | 38° |
| 2026-04-23 14:17 | 50.85965 | -0.96799 | 17751 ft | 306 kts | 38° |
| 2026-04-23 14:17 | 50.87683 | -0.94814 | 17332 ft | 304 kts | 38° |
| 2026-04-23 14:17 | 50.89384 | -0.92851 | 16914 ft | 302 kts | 38° |
| 2026-04-23 14:17 | 50.91078 | -0.90895 | 16499 ft | 300 kts | 38° |
| 2026-04-23 14:18 | 50.92778 | -0.88928 | 15966 ft | 297 kts | 39° |
| 2026-04-23 14:18 | 50.94438 | -0.87001 | 15452 ft | 295 kts | 39° |
| 2026-04-23 14:18 | 50.96108 | -0.85063 | 14944 ft | 293 kts | 39° |
| 2026-04-23 14:18 | 50.97746 | -0.83162 | 14479 ft | 290 kts | 39° |
| 2026-04-23 14:19 | 50.99370 | -0.81276 | 13975 ft | 288 kts | 39° |
| 2026-04-23 14:19 | 51.00981 | -0.79403 | 13500 ft | 286 kts | 39° |
| 2026-04-23 14:19 | 51.02586 | -0.77531 | 13315 ft | 286 kts | 39° |
| 2026-04-23 14:19 | 51.04179 | -0.75668 | 12784 ft | 285 kts | 39° |
| 2026-04-23 14:20 | 51.05771 | -0.73805 | 12274 ft | 283 kts | 39° |
| 2026-04-23 14:20 | 51.07354 | -0.71950 | 11764 ft | 282 kts | 39° |
| 2026-04-23 14:20 | 51.08926 | -0.70109 | 11287 ft | 280 kts | 39° |
| 2026-04-23 14:20 | 51.10495 | -0.68275 | 10818 ft | 279 kts | 39° |
| 2026-04-23 14:21 | 51.12058 | -0.66447 | 10350 ft | 278 kts | 39° |
| 2026-04-23 14:21 | 51.13610 | -0.64632 | 9876 ft | 276 kts | 39° |
| 2026-04-23 14:21 | 51.15169 | -0.62806 | 9389 ft | 274 kts | 39° |
| 2026-04-23 14:21 | 51.15922 | -0.61932 | 9163 ft | 272 kts | 38° |
| 2026-04-23 14:22 | 51.17306 | -0.60272 | 8739 ft | 271 kts | 40° |
| 2026-04-23 14:22 | 51.18817 | -0.58487 | 8294 ft | 269 kts | 39° |
| 2026-04-23 14:22 | 51.20323 | -0.56721 | 7819 ft | 268 kts | 39° |
| 2026-04-23 14:22 | 51.21771 | -0.55029 | 7462 ft | 266 kts | 39° |
| 2026-04-23 14:23 | 51.23322 | -0.53407 | 7399 ft | 271 kts | 27° |
| 2026-04-23 14:23 | 51.25218 | -0.52882 | 7411 ft | 280 kts | 359° |
| 2026-04-23 14:23 | 51.27081 | -0.53829 | 7407 ft | 287 kts | 330° |
| 2026-04-23 14:23 | 51.28521 | -0.56065 | 7417 ft | 293 kts | 306° |
| 2026-04-23 14:24 | 51.29594 | -0.58831 | 7411 ft | 293 kts | 301° |
| 2026-04-23 14:24 | 51.30619 | -0.61653 | 7407 ft | 293 kts | 301° |
| 2026-04-23 14:24 | 51.31631 | -0.64467 | 7159 ft | 292 kts | 301° |
| 2026-04-23 14:24 | 51.32639 | -0.67275 | 6801 ft | 291 kts | 301° |
| 2026-04-23 14:25 | 51.33652 | -0.70072 | 6426 ft | 290 kts | 301° |
| 2026-04-23 14:25 | 51.34667 | -0.72854 | 6109 ft | 289 kts | 301° |
| 2026-04-23 14:25 | 51.35351 | -0.74728 | 5897 ft | 288 kts | 301° |
| 2026-04-23 14:25 | 51.36359 | -0.77494 | 5578 ft | 287 kts | 301° |
| 2026-04-23 14:26 | 51.37354 | -0.80240 | 5418 ft | 281 kts | 301° |
| 2026-04-23 14:26 | 51.38332 | -0.82892 | 5285 ft | 272 kts | 305° |
| 2026-04-23 14:26 | 51.39674 | -0.84865 | 5157 ft | 258 kts | 336° |
| 2026-04-23 14:26 | 51.41346 | -0.85577 | 4952 ft | 244 kts | 358° |
| 2026-04-23 14:27 | 51.42977 | -0.85199 | 4638 ft | 230 kts | 29° |
| 2026-04-23 14:27 | 51.44136 | -0.83590 | 4325 ft | 216 kts | 59° |
| 2026-04-23 14:27 | 51.44916 | -0.81569 | 4025 ft | 212 kts | 63° |
| 2026-04-23 14:27 | 51.45640 | -0.79529 | 3717 ft | 210 kts | 64° |
| 2026-04-23 14:28 | 51.46353 | -0.77495 | 3301 ft | 209 kts | 64° |
| 2026-04-23 14:28 | 51.47056 | -0.75462 | 2995 ft | 206 kts | 64° |
| 2026-04-23 14:28 | 51.47580 | -0.73432 | 2983 ft | 188 kts | 82° |
| 2026-04-23 14:28 | 51.47633 | -0.71411 | 2880 ft | 178 kts | 89° |
| 2026-04-23 14:29 | 51.47644 | -0.69428 | 2680 ft | 178 kts | 89° |
| 2026-04-23 14:29 | 51.47654 | -0.67501 | 2469 ft | 169 kts | 90° |
| 2026-04-23 14:29 | 51.47665 | -0.65662 | 2237 ft | 163 kts | 89° |
| 2026-04-23 14:29 | 51.47675 | -0.63860 | 2013 ft | 160 kts | 89° |
| 2026-04-23 14:30 | 51.47684 | -0.62116 | 1808 ft | 151 kts | 89° |
| 2026-04-23 14:30 | 51.47693 | -0.60454 | 1604 ft | 148 kts | 89° |
| 2026-04-23 14:30 | 51.47701 | -0.58823 | 1412 ft | 146 kts | 88° |
| 2026-04-23 14:30 | 51.47709 | -0.57192 | 1207 ft | 141 kts | 87° |
| 2026-04-23 14:31 | 51.47716 | -0.55709 | 1023 ft | 127 kts | 89° |
| 2026-04-23 14:31 | 51.47729 | -0.54350 | 841 ft | 118 kts | 89° |
| 2026-04-23 14:31 | 51.47736 | -0.53038 | 673 ft | 113 kts | 89° |
| 2026-04-23 14:31 | 51.47741 | -0.51786 | 511 ft | 115 kts | 90° |
| 2026-04-23 14:32 | 51.47746 | -0.50475 | 401 ft | 118 kts | 90° |
| 2026-04-23 14:32 | 51.47756 | -0.49190 | 218 ft | 116 kts | 92° |
| 2026-04-23 14:32 | 51.47755 | -0.47879 | 98 ft | 106 kts | 91° |
| 2026-04-23 14:32 | 51.47755 | -0.46956 | 90 ft | 45 kts | 90° |
| 2026-04-23 14:33 | 51.47757 | -0.46496 | 91 ft | 45 kts | 89° |
| 2026-04-23 14:33 | 51.47714 | -0.46150 | 87 ft | 24 kts | 142° |
| 2026-04-23 14:33 | 51.47601 | -0.46061 | 87 ft | 12 kts | 212° |
| 2026-04-23 14:33 | 51.47592 | -0.46197 | 87 ft | 13 kts | 269° |
| 2026-04-23 14:34 | 51.47592 | -0.46355 | 87 ft | 15 kts | 270° |
| 2026-04-23 14:34 | 51.47591 | -0.46528 | 87 ft | 16 kts | 269° |
| 2026-04-23 14:34 | 51.47591 | -0.46712 | 87 ft | 17 kts | 269° |
| 2026-04-23 14:34 | 51.47583 | -0.46906 | 88 ft | 18 kts | 263° |
| 2026-04-23 14:35 | 51.47581 | -0.47110 | 88 ft | 19 kts | 270° |
| 2026-04-23 14:35 | 51.47581 | -0.47332 | 88 ft | 20 kts | 270° |
| 2026-04-23 14:35 | 51.47582 | -0.47564 | 87 ft | 21 kts | 270° |
| 2026-04-23 14:35 | 51.47578 | -0.47807 | 87 ft | 22 kts | 269° |
| 2026-04-23 14:36 | 51.47579 | -0.48063 | 90 ft | 23 kts | 271° |
| 2026-04-23 14:36 | 51.47579 | -0.48287 | 87 ft | 21 kts | 269° |
| 2026-04-23 14:36 | 51.47544 | -0.48473 | 87 ft | 16 kts | 197° |
| 2026-04-23 14:36 | 51.47486 | -0.48581 | 88 ft | 14 kts | 271° |
| 2026-04-23 14:37 | 51.47486 | -0.48737 | 87 ft | 14 kts | 270° |
| 2026-04-23 14:37 | 51.47483 | -0.48877 | 90 ft | 9 kts | 251° |
| 2026-04-23 14:37 | 51.47428 | -0.48894 | 87 ft | 8 kts | 180° |
| 2026-04-23 14:37 | 51.47408 | -0.48894 | 87 ft | 0 kts | 179° |